Time;durP1;ratioP1;P1;durP2;ratioP2;P2;SDS_P1;SDS_P2;PMS_P1;PMS_P2;Temp;Humidity;BMP_temperature;BMP_pressure;BME280_temperature;BME280_humidity;BME280_pressure;Samples;Min_cycle;Max_cycle;Signal;HPM_P1;HPM_P2
2020/12/14 00:01:35;;;;;;;7.30;2.05;;;6.50;99.90;;;;;;5066567;28;20032;-68
2020/12/14 00:04:01;;;;;;;6.80;2.42;;;6.50;99.90;;;;;;5069469;28;20024;-68
2020/12/14 00:06:26;;;;;;;7.20;2.40;;;6.50;99.90;;;;;;5067875;28;20037;-68
2020/12/14 00:08:52;;;;;;;7.75;2.30;;;6.50;99.90;;;;;;5072640;28;20039;-68
2020/12/14 00:11:17;;;;;;;8.23;2.35;;;6.40;99.90;;;;;;5056258;28;20656;-68
2020/12/14 00:13:43;;;;;;;7.50;2.30;;;6.40;99.90;;;;;;5068270;28;20028;-68
2020/12/14 00:16:08;;;;;;;8.07;2.30;;;6.30;99.90;;;;;;5067182;28;20040;-69
2020/12/14 00:18:34;;;;;;;8.88;2.38;;;6.40;99.90;;;;;;5076639;28;20024;-68
2020/12/14 00:21:00;;;;;;;7.15;2.28;;;6.40;99.90;;;;;;5048647;28;20523;-68
2020/12/14 00:23:26;;;;;;;7.13;2.30;;;6.40;99.90;;;;;;5067285;28;20506;-68
2020/12/14 00:25:51;;;;;;;5.82;1.92;;;6.50;99.90;;;;;;5072700;28;20036;-68
2020/12/14 00:28:17;;;;;;;5.57;2.10;;;6.60;99.90;;;;;;5066499;28;20017;-68
2020/12/14 00:30:42;;;;;;;5.32;1.88;;;6.60;99.90;;;;;;5067805;28;20036;-68
2020/12/14 00:33:08;;;;;;;6.32;1.98;;;6.60;99.90;;;;;;5068970;28;20028;-68
2020/12/14 00:35:34;;;;;;;6.78;2.17;;;6.60;99.50;;;;;;5033744;28;20664;-68
2020/12/14 00:37:59;;;;;;;6.60;1.63;;;6.70;99.60;;;;;;5069999;28;20024;-68
2020/12/14 00:40:29;;;;;;;5.03;2.08;;;6.70;99.40;;;;;;5065796;28;20078;-68
2020/12/14 00:42:56;;;;;;;7.60;2.05;;;6.70;99.70;;;;;;5047847;28;20063;-68
2020/12/14 00:45:22;;;;;;;7.60;2.03;;;6.80;98.90;;;;;;5061922;28;20036;-68
2020/12/14 00:47:47;;;;;;;5.10;2.00;;;6.80;99.10;;;;;;5073181;28;20027;-67
2020/12/14 00:50:13;;;;;;;5.85;2.00;;;6.90;98.80;;;;;;5067343;28;20036;-67
2020/12/14 00:52:38;;;;;;;6.43;2.05;;;6.90;98.80;;;;;;5062376;28;20411;-69
2020/12/14 00:55:04;;;;;;;9.70;2.05;;;6.90;98.90;;;;;;5073320;28;20055;-67
2020/12/14 00:57:30;;;;;;;5.38;1.80;;;6.90;99.20;;;;;;5071475;28;20887;-67
2020/12/14 00:59:57;;;;;;;6.43;2.25;;;6.90;99.00;;;;;;5075940;28;20503;-67
2020/12/14 01:02:23;;;;;;;8.10;1.75;;;6.90;99.10;;;;;;5057431;28;20039;-67
2020/12/14 01:04:50;;;;;;;6.00;1.92;;;7.00;98.80;;;;;;5064366;28;20020;-67
2020/12/14 01:07:18;;;;;;;4.88;1.60;;;7.00;99.00;;;;;;5042799;28;20040;-67
2020/12/14 01:09:44;;;;;;;8.48;2.17;;;7.70;98.90;;;;;;5071835;28;20052;-69
2020/12/14 01:12:10;;;;;;;8.93;2.00;;;7.10;98.80;;;;;;5066718;28;20075;-67
2020/12/14 01:14:36;;;;;;;3.97;1.67;;;7.10;98.60;;;;;;5066151;28;20040;-67
2020/12/14 01:17:01;;;;;;;5.22;1.90;;;7.10;98.70;;;;;;5070427;28;20019;-67
2020/12/14 01:19:27;;;;;;;9.68;2.15;;;7.10;98.70;;;;;;5071211;28;20495;-67
2020/12/14 01:21:52;;;;;;;7.40;1.95;;;7.10;98.30;;;;;;5070796;28;20060;-68
2020/12/14 01:24:18;;;;;;;7.93;2.67;;;7.00;98.30;;;;;;5065712;28;20407;-68
2020/12/14 01:26:43;;;;;;;7.05;1.75;;;7.00;98.60;;;;;;5078536;28;20036;-67
2020/12/14 01:29:09;;;;;;;5.57;2.00;;;7.00;98.70;;;;;;5042827;28;20736;-67
2020/12/14 01:31:35;;;;;;;5.20;1.77;;;7.00;99.00;;;;;;5066232;28;20031;-68
2020/12/14 01:34:00;;;;;;;4.45;1.60;;;7.00;99.10;;;;;;5066124;28;20106;-67
2020/12/14 01:36:26;;;;;;;8.32;2.25;;;7.00;99.00;;;;;;5069339;28;20119;-67
2020/12/14 01:38:51;;;;;;;8.77;2.22;;;7.00;99.10;;;;;;5038314;28;20021;-67
2020/12/14 01:41:17;;;;;;;8.60;1.80;;;7.00;98.90;;;;;;5064068;28;20037;-68
2020/12/14 01:43:43;;;;;;;6.57;2.00;;;7.00;98.80;;;;;;5052834;28;20047;-67
2020/12/14 01:46:08;;;;;;;4.88;1.70;;;7.00;99.00;;;;;;5044233;28;20020;-67
2020/12/14 01:48:34;;;;;;;9.57;2.67;;;7.00;98.90;;;;;;5064448;28;20025;-67
2020/12/14 01:51:00;;;;;;;5.70;1.80;;;7.00;98.80;;;;;;5056131;28;20120;-68
2020/12/14 01:53:28;;;;;;;5.32;1.80;;;7.00;99.00;;;;;;5055474;28;20021;-68
2020/12/14 01:55:54;;;;;;;5.82;1.80;;;7.00;98.60;;;;;;5067022;28;20039;-68
2020/12/14 01:58:21;;;;;;;5.63;1.80;;;7.00;98.80;;;;;;5066177;28;20020;-68
2020/12/14 02:00:46;;;;;;;9.60;2.30;;;7.10;99.10;;;;;;5061689;28;20674;-68
2020/12/14 02:03:12;;;;;;;7.82;1.70;;;7.10;98.60;;;;;;5057183;28;20132;-68
2020/12/14 02:05:37;;;;;;;5.20;1.77;;;7.10;98.70;;;;;;5068208;28;20031;-67
2020/12/14 02:08:05;;;;;;;9.00;2.25;;;7.20;98.40;;;;;;5071360;28;20032;-67
2020/12/14 02:10:34;;;;;;;7.80;1.88;;;7.20;98.30;;;;;;5071383;28;20380;-68
2020/12/14 02:13:00;;;;;;;6.77;1.83;;;7.10;98.70;;;;;;5071343;28;20112;-67
2020/12/14 02:15:26;;;;;;;5.90;1.70;;;7.10;98.30;;;;;;5067934;28;20373;-67
2020/12/14 02:17:52;;;;;;;5.57;1.90;;;7.10;98.60;;;;;;5070675;28;20025;-67
2020/12/14 02:20:17;;;;;;;6.38;1.95;;;7.00;98.60;;;;;;5066473;28;20029;-68
2020/12/14 02:22:43;;;;;;;6.75;1.75;;;7.00;98.30;;;;;;5063232;28;20024;-67
2020/12/14 02:25:08;;;;;;;6.97;1.90;;;7.00;98.70;;;;;;5071656;28;20506;-67
2020/12/14 02:27:36;;;;;;;8.75;2.33;;;6.90;98.50;;;;;;5076330;28;20037;-68
2020/12/14 02:30:06;;;;;;;3.78;1.50;;;7.00;98.80;;;;;;5073626;28;20025;-68
2020/12/14 02:32:32;;;;;;;2.93;1.33;;;6.90;98.70;;;;;;5067008;28;20175;-67
2020/12/14 02:34:57;;;;;;;4.07;1.42;;;6.90;98.90;;;;;;5069668;28;20659;-67
2020/12/14 02:37:26;;;;;;;7.65;1.98;;;6.90;98.80;;;;;;5067086;28;20402;-67
2020/12/14 02:39:53;;;;;;;7.93;2.22;;;6.80;98.90;;;;;;5065024;28;20017;-67
2020/12/14 02:42:20;;;;;;;6.40;1.60;;;6.80;99.00;;;;;;5077663;28;20047;-67
2020/12/14 02:44:46;;;;;;;5.43;1.83;;;6.80;99.10;;;;;;5071503;28;20028;-67
2020/12/14 02:47:12;;;;;;;4.85;1.73;;;6.80;99.00;;;;;;5068400;28;20028;-67
2020/12/14 02:49:39;;;;;;;7.70;2.00;;;6.80;98.90;;;;;;5042721;28;20390;-67
2020/12/14 02:52:05;;;;;;;6.85;1.90;;;6.80;99.20;;;;;;5049236;28;20495;-67
2020/12/14 02:54:31;;;;;;;5.10;1.70;;;6.90;98.70;;;;;;5040987;28;20054;-67
2020/12/14 02:56:57;;;;;;;8.38;2.35;;;6.80;98.90;;;;;;5067175;28;20402;-67
2020/12/14 02:59:23;;;;;;;7.25;1.80;;;6.80;98.90;;;;;;5049893;28;20021;-67
2020/12/14 03:01:50;;;;;;;4.53;1.80;;;6.80;99.00;;;;;;5077796;28;20039;-67
2020/12/14 03:04:17;;;;;;;6.07;1.58;;;6.80;99.30;;;;;;5076735;28;20458;-67
2020/12/14 03:06:44;;;;;;;5.20;1.98;;;6.80;99.20;;;;;;5070954;28;20487;-67
2020/12/14 03:09:13;;;;;;;7.53;1.50;;;6.70;99.30;;;;;;5052091;28;20024;-67
2020/12/14 03:11:39;;;;;;;6.07;2.05;;;6.80;99.40;;;;;;5075029;28;20388;-68
2020/12/14 03:14:06;;;;;;;5.03;1.88;;;6.70;99.40;;;;;;5076352;28;20017;-66
2020/12/14 03:16:32;;;;;;;5.80;1.80;;;6.70;99.60;;;;;;5050552;28;20115;-68
2020/12/14 03:18:58;;;;;;;9.73;2.05;;;6.70;99.60;;;;;;5069768;28;20111;-66
2020/12/14 03:21:23;;;;;;;7.68;2.30;;;7.80;99.50;;;;;;5069133;28;20020;-66
2020/12/14 03:23:49;;;;;;;4.15;1.50;;;6.80;99.50;;;;;;5069682;28;20029;-66
2020/12/14 03:26:17;;;;;;;7.25;2.00;;;6.80;99.40;;;;;;5069437;28;20028;-68
2020/12/14 03:28:43;;;;;;;7.85;1.90;;;6.80;99.50;;;;;;5069015;28;20711;-68
2020/12/14 03:31:10;;;;;;;7.97;2.03;;;6.80;99.50;;;;;;5069689;28;20111;-68
2020/12/14 03:33:36;;;;;;;10.18;1.98;;;6.80;99.70;;;;;;5069356;28;20094;-68
2020/12/14 03:36:03;;;;;;;6.75;2.35;;;6.80;99.90;;;;;;5069246;28;20036;-68
2020/12/14 03:38:28;;;;;;;4.93;2.03;;;6.80;99.90;;;;;;5069020;28;20016;-68
2020/12/14 03:40:54;;;;;;;5.95;1.77;;;6.80;99.60;;;;;;5069292;28;20110;-68
2020/12/14 03:43:20;;;;;;;5.32;2.17;;;6.90;99.90;;;;;;5060003;28;20028;-66
2020/12/14 03:45:48;;;;;;;5.35;1.70;;;6.90;99.90;;;;;;5060470;28;20020;-68
2020/12/14 03:48:17;;;;;;;4.50;1.77;;;7.00;99.80;;;;;;5069291;28;20357;-68
2020/12/14 03:50:45;;;;;;;6.95;1.92;;;7.00;99.80;;;;;;5068747;28;20029;-68
2020/12/14 03:53:12;;;;;;;6.13;1.77;;;7.00;99.90;;;;;;5069427;28;20032;-66
2020/12/14 03:55:37;;;;;;;6.05;1.95;;;7.10;99.90;;;;;;5068340;28;20045;-66
2020/12/14 03:58:03;;;;;;;5.35;1.92;;;7.10;99.90;;;;;;5069333;28;20040;-66
2020/12/14 04:00:28;;;;;;;7.60;2.08;;;7.10;99.90;;;;;;5065869;28;20155;-66
2020/12/14 04:02:54;;;;;;;6.38;2.15;;;7.10;99.90;;;;;;5069086;28;20035;-66
2020/12/14 04:05:20;;;;;;;5.43;2.03;;;7.10;99.90;;;;;;5069159;28;20773;-66
2020/12/14 04:07:45;;;;;;;8.20;1.83;;;7.10;99.90;;;;;;5068484;28;20601;-66
2020/12/14 04:10:11;;;;;;;10.18;1.90;;;7.20;99.90;;;;;;5068846;28;20031;-66
2020/12/14 04:12:36;;;;;;;6.55;2.05;;;7.30;99.90;;;;;;5068214;28;20074;-66
2020/12/14 04:15:02;;;;;;;7.25;1.60;;;7.30;99.90;;;;;;5068964;28;20043;-66
2020/12/14 04:17:28;;;;;;;4.53;1.63;;;7.30;99.90;;;;;;5067912;28;20024;-66
2020/12/14 04:19:53;;;;;;;7.82;1.85;;;7.40;99.90;;;;;;5068934;28;20599;-68
2020/12/14 04:22:19;;;;;;;3.63;1.50;;;7.40;99.90;;;;;;5068290;28;20060;-68
2020/12/14 04:24:45;;;;;;;5.65;1.83;;;7.40;99.90;;;;;;5068230;28;20028;-68
2020/12/14 04:27:10;;;;;;;4.68;1.75;;;7.50;99.90;;;;;;5068452;28;20115;-67
2020/12/14 04:29:36;;;;;;;6.35;1.88;;;7.50;99.90;;;;;;5067888;28;20024;-68
2020/12/14 04:32:01;;;;;;;6.10;1.45;;;7.50;99.90;;;;;;5070620;28;20039;-68
2020/12/14 04:34:27;;;;;;;6.10;2.15;;;7.50;99.90;;;;;;5071460;28;20020;-68
2020/12/14 04:36:52;;;;;;;6.75;1.75;;;7.50;99.90;;;;;;5061489;28;20047;-67
2020/12/14 04:39:18;;;;;;;5.53;1.90;;;7.50;99.90;;;;;;5068047;28;20039;-66
2020/12/14 04:41:44;;;;;;;6.15;1.80;;;7.50;99.90;;;;;;5067890;28;20514;-67
2020/12/14 04:44:11;;;;;;;6.00;1.90;;;7.60;99.90;;;;;;5068217;28;20043;-66
2020/12/14 04:46:37;;;;;;;5.72;1.60;;;7.60;99.90;;;;;;5067870;28;20074;-68
2020/12/14 04:49:04;;;;;;;5.38;1.55;;;7.60;99.90;;;;;;5068445;28;20109;-68
2020/12/14 04:51:32;;;;;;;6.43;2.03;;;7.60;99.90;;;;;;5067282;28;20118;-68
2020/12/14 04:54:00;;;;;;;5.03;1.65;;;7.60;99.90;;;;;;5068523;28;20052;-68
2020/12/14 04:56:27;;;;;;;8.25;2.03;;;7.60;99.90;;;;;;5067736;28;20048;-68
2020/12/14 04:58:55;;;;;;;6.00;1.70;;;7.60;99.90;;;;;;5068248;28;20064;-68
2020/12/14 05:01:21;;;;;;;6.57;1.85;;;7.70;99.90;;;;;;5040224;28;20028;-68
2020/12/14 05:03:47;;;;;;;5.43;1.63;;;7.70;99.90;;;;;;5063662;28;20042;-68
2020/12/14 05:06:12;;;;;;;5.30;1.58;;;7.70;99.90;;;;;;5058894;28;20021;-66
2020/12/14 05:08:38;;;;;;;5.22;1.40;;;7.70;99.90;;;;;;5054888;28;20036;-66
2020/12/14 05:11:04;;;;;;;5.78;1.85;;;7.70;99.90;;;;;;5056860;28;20067;-68
2020/12/14 05:13:29;;;;;;;6.30;1.90;;;7.70;99.90;;;;;;5052560;28;20473;-66
2020/12/14 05:15:55;;;;;;;8.18;2.05;;;7.70;99.90;;;;;;5058975;28;20039;-67
2020/12/14 05:18:24;;;;;;;7.97;1.92;;;7.70;99.90;;;;;;5059272;28;20045;-67
2020/12/14 05:20:58;;;;;;;4.80;1.30;;;;;;;;;;5051395;28;20021;-65
2020/12/14 05:23:23;;;;;;;7.25;1.85;;;7.80;99.90;;;;;;5057514;28;20021;-65
2020/12/14 05:25:49;;;;;;;7.03;1.80;;;7.80;99.90;;;;;;5057661;28;20561;-67
2020/12/14 05:28:19;;;;;;;5.03;1.95;;;7.80;99.90;;;;;;5047913;28;20028;-68
2020/12/14 05:30:49;;;;;;;5.13;1.73;;;7.80;99.90;;;;;;5062051;28;20071;-66
2020/12/14 05:33:20;;;;;;;4.35;1.50;;;7.90;99.90;;;;;;5064443;28;20017;-68
2020/12/14 05:35:46;;;;;;;7.40;2.33;;;7.90;99.90;;;;;;5062924;28;20037;-68
2020/12/14 05:38:23;;;;;;;4.88;1.67;;;7.90;99.90;;;;;;5055070;28;20029;-65
2020/12/14 05:40:54;;;;;;;7.57;2.17;;;7.80;99.90;;;;;;5055876;28;20295;-65
2020/12/14 05:43:25;;;;;;;7.22;1.73;;;7.80;99.90;;;;;;5052889;28;20481;-68
2020/12/14 05:45:52;;;;;;;4.55;1.73;;;7.80;99.90;;;;;;5061007;28;20032;-68
2020/12/14 05:48:27;;;;;;;5.38;1.63;;;7.80;99.90;;;;;;5058208;28;20020;-68
2020/12/14 05:51:03;;;;;;;6.57;1.90;;;7.80;99.90;;;;;;5058962;28;20029;-67
2020/12/14 05:53:33;;;;;;;6.55;1.67;;;7.80;99.90;;;;;;5054316;28;20102;-68
2020/12/14 05:56:00;;;;;;;4.40;1.80;;;7.80;99.90;;;;;;5065020;28;20549;-68
2020/12/14 05:58:28;;;;;;;15.15;2.35;;;7.70;99.90;;;;;;5062582;28;20024;-68
2020/12/14 06:00:55;;;;;;;8.50;1.85;;;7.70;99.90;;;;;;5059757;28;20081;-68
2020/12/14 06:03:23;;;;;;;4.97;1.73;;;7.70;99.90;;;;;;5060723;28;20056;-68
2020/12/14 06:05:57;;;;;;;4.50;1.80;;;7.70;99.90;;;;;;5057939;28;20021;-68
2020/12/14 06:08:42;;;;;;;5.40;1.77;;;7.70;99.90;;;;;;5064131;28;20530;-68
2020/12/14 06:11:07;;;;;;;4.60;1.65;;;7.70;99.90;;;;;;5054704;28;20055;-68
2020/12/14 06:13:47;;;;;;;4.35;1.70;;;7.80;99.90;;;;;;5051606;28;20048;-68
2020/12/14 06:16:18;;;;;;;8.27;1.80;;;7.70;99.90;;;;;;5053833;28;20095;-68
2020/12/14 06:18:45;;;;;;;8.27;1.63;;;7.70;99.90;;;;;;5056477;28;20442;-68
2020/12/14 06:21:20;;;;;;;6.13;1.83;;;7.70;99.90;;;;;;5058575;28;20025;-68
2020/12/14 06:23:48;;;;;;;5.55;1.83;;;7.60;99.90;;;;;;5070458;28;20028;-68
2020/12/14 06:26:15;;;;;;;5.90;1.90;;;7.60;99.90;;;;;;5070984;28;20027;-68
2020/12/14 06:28:41;;;;;;;3.67;1.50;;;7.70;99.90;;;;;;5051941;28;20043;-68
2020/12/14 06:31:06;;;;;;;4.03;1.58;;;7.60;99.90;;;;;;5070447;28;20020;-68
2020/12/14 06:33:40;;;;;;;4.93;1.85;;;7.60;99.90;;;;;;5051862;28;20035;-68
2020/12/14 06:36:17;;;;;;;6.18;1.70;;;7.60;99.90;;;;;;5058960;28;20037;-68
2020/12/14 06:38:43;;;;;;;4.82;1.80;;;7.70;99.90;;;;;;5053034;28;20021;-68
2020/12/14 06:41:17;;;;;;;5.07;1.80;;;7.70;99.90;;;;;;5054522;28;20056;-68
2020/12/14 06:43:45;;;;;;;5.13;1.60;;;7.80;99.90;;;;;;5067262;28;20017;-68
2020/12/14 06:46:11;;;;;;;6.00;1.90;;;7.80;99.90;;;;;;5057343;28;20591;-68
2020/12/14 06:48:44;;;;;;;6.75;1.95;;;7.80;99.90;;;;;;5055626;28;20028;-68
2020/12/14 06:51:14;;;;;;;4.65;1.45;;;7.90;99.90;;;;;;5049511;28;20017;-68
2020/12/14 06:53:52;;;;;;;7.05;2.10;;;7.90;99.90;;;;;;5065369;28;20181;-67
2020/12/14 06:56:40;;;;;;;6.28;2.20;;;7.80;99.90;;;;;;5052239;28;20036;-68
2020/12/14 06:59:28;;;;;;;4.43;1.77;;;7.90;99.90;;;;;;5053027;28;20032;-67
2020/12/14 07:01:59;;;;;;;5.38;1.73;;;7.90;99.90;;;;;;5051365;28;20033;-67
2020/12/14 07:04:33;;;;;;;5.25;2.05;;;7.90;99.90;;;;;;5069942;28;20059;-66
2020/12/14 07:07:04;;;;;;;5.20;1.95;;;7.90;99.90;;;;;;5063921;28;20104;-66
2020/12/14 07:09:40;;;;;;;7.80;2.53;;;7.90;99.90;;;;;;5059830;28;20024;-66
2020/12/14 07:12:08;;;;;;;6.47;2.15;;;7.90;99.90;;;;;;5057630;28;20020;-66
2020/12/14 07:14:35;;;;;;;5.65;1.80;;;8.00;99.90;;;;;;5066693;28;20035;-67
2020/12/14 07:17:16;;;;;;;4.82;1.70;;;8.00;99.90;;;;;;5052647;28;20017;-66
2020/12/14 07:19:45;;;;;;;7.00;2.10;;;8.00;99.90;;;;;;5047074;28;20782;-66
2020/12/14 07:22:14;;;;;;;6.32;2.30;;;8.00;99.90;;;;;;5057801;28;20025;-65
2020/12/14 07:24:40;;;;;;;6.35;2.17;;;8.00;99.90;;;;;;5055324;28;20040;-66
2020/12/14 07:27:09;;;;;;;4.22;1.70;;;8.00;99.90;;;;;;5055817;28;20052;-68
2020/12/14 07:29:35;;;;;;;5.35;1.75;;;8.00;99.90;;;;;;5059452;28;20079;-66
2020/12/14 07:32:06;;;;;;;10.38;2.60;;;8.00;99.90;;;;;;5052773;28;20040;-66
2020/12/14 07:34:32;;;;;;;13.25;2.17;;;7.90;99.90;;;;;;5050299;28;20682;-67
2020/12/14 07:36:58;;;;;;;8.38;2.38;;;7.90;99.90;;;;;;5056056;28;20033;-66
2020/12/14 07:39:24;;;;;;;5.05;1.80;;;7.90;99.90;;;;;;5054895;28;20552;-67
2020/12/14 07:41:51;;;;;;;7.47;2.88;;;7.90;99.90;;;;;;5047372;28;20033;-67
2020/12/14 07:44:17;;;;;;;7.78;2.10;;;7.90;99.90;;;;;;5056807;28;20025;-67
2020/12/14 07:46:43;;;;;;;6.15;2.20;;;7.90;99.90;;;;;;5063500;28;20440;-67
2020/12/14 07:49:13;;;;;;;6.22;2.35;;;7.90;99.90;;;;;;5054563;28;20016;-67
2020/12/14 07:51:45;;;;;;;7.57;2.40;;;8.00;99.90;;;;;;5057795;28;20112;-67
2020/12/14 07:54:12;;;;;;;7.65;2.88;;;8.00;99.90;;;;;;5057302;28;20047;-67
2020/12/14 07:56:56;;;;;;;5.43;1.70;;;8.10;99.90;;;;;;5038163;28;20044;-67
2020/12/14 07:59:24;;;;;;;6.07;2.30;;;8.10;99.90;;;;;;5042749;28;20028;-67
2020/12/14 08:01:51;;;;;;;4.82;1.80;;;8.20;99.90;;;;;;5058931;28;20029;-67
2020/12/14 08:04:21;;;;;;;7.88;2.60;;;8.20;99.90;;;;;;5060609;28;20016;-67
2020/12/14 08:06:49;;;;;;;9.23;2.17;;;8.30;99.90;;;;;;5063747;28;20036;-69
2020/12/14 08:09:18;;;;;;;6.63;2.38;;;8.30;99.90;;;;;;5061602;28;20020;-67
2020/12/14 08:11:47;;;;;;;5.53;1.85;;;8.30;99.90;;;;;;5060676;28;20031;-67
2020/12/14 08:14:16;;;;;;;6.63;2.03;;;8.30;99.90;;;;;;5050797;28;20119;-67
2020/12/14 08:16:43;;;;;;;8.43;2.45;;;8.40;99.90;;;;;;5063472;28;20045;-67
2020/12/14 08:19:15;;;;;;;7.40;2.05;;;8.40;99.90;;;;;;5061755;28;20032;-67
2020/12/14 08:21:41;;;;;;;6.05;2.33;;;8.40;99.90;;;;;;5061100;28;20097;-67
2020/12/14 08:24:10;;;;;;;10.48;2.70;;;8.40;99.90;;;;;;5053896;28;20049;-67
2020/12/14 08:26:38;;;;;;;10.75;2.25;;;8.50;99.90;;;;;;5049539;28;20040;-67
2020/12/14 08:29:03;;;;;;;8.85;2.35;;;8.50;99.90;;;;;;5058072;28;20025;-67
2020/12/14 08:31:29;;;;;;;7.25;2.35;;;8.30;99.90;;;;;;5059489;28;20040;-67
2020/12/14 08:33:56;;;;;;;6.30;2.50;;;8.00;99.90;;;;;;5055771;28;20069;-67
2020/12/14 08:36:23;;;;;;;9.02;3.13;;;7.90;99.90;;;;;;5054544;28;20527;-67
2020/12/14 08:38:50;;;;;;;6.68;2.10;;;7.90;99.90;;;;;;5051446;28;20020;-67
2020/12/14 08:41:23;;;;;;;7.55;2.47;;;7.80;99.90;;;;;;5044755;28;20044;-67
2020/12/14 08:43:56;;;;;;;6.93;2.97;;;7.80;99.90;;;;;;5060321;28;20028;-68
2020/12/14 08:46:28;;;;;;;4.97;2.03;;;7.80;99.90;;;;;;5067036;28;20023;-67
2020/12/14 08:48:59;;;;;;;9.52;3.42;;;7.80;99.90;;;;;;5056306;28;20029;-68
2020/12/14 08:51:33;;;;;;;6.78;2.90;;;7.70;99.90;;;;;;5054765;28;20082;-68
2020/12/14 08:54:17;;;;;;;9.68;2.63;;;7.70;99.90;;;;;;5061977;28;20672;-68
2020/12/14 08:56:44;;;;;;;7.03;3.13;;;7.70;99.90;;;;;;5065155;28;20040;-68
2020/12/14 08:59:14;;;;;;;8.73;2.88;;;7.70;99.90;;;;;;5063328;28;20032;-68
2020/12/14 09:01:53;;;;;;;;;;;7.80;99.90;;;;;;5062026;28;20016;-68
2020/12/14 09:04:32;;;;;;;7.75;2.90;;;7.80;99.90;;;;;;5062952;28;19930;-68
2020/12/14 09:06:59;;;;;;;8.82;3.05;;;7.90;99.90;;;;;;5044350;28;20492;-68
2020/12/14 09:09:37;;;;;;;8.10;2.70;;;7.90;99.90;;;;;;5059059;28;20046;-68
2020/12/14 09:12:09;;;;;;;8.88;3.17;;;7.90;99.90;;;;;;5048744;28;20036;-70
2020/12/14 09:14:35;;;;;;;6.47;2.45;;;8.00;99.90;;;;;;5052012;28;20025;-70
2020/12/14 09:17:03;;;;;;;7.22;2.72;;;7.90;99.90;;;;;;5048937;28;20029;-70
2020/12/14 09:19:31;;;;;;;6.88;2.55;;;8.00;99.90;;;;;;5051156;28;20028;-67
2020/12/14 09:21:57;;;;;;;6.50;2.45;;;8.10;99.90;;;;;;5041075;28;20083;-69
2020/12/14 09:24:34;;;;;;;7.63;2.85;;;8.20;99.90;;;;;;5059516;28;20024;-69
2020/12/14 09:27:08;;;;;;;6.57;2.50;;;8.20;99.90;;;;;;5061110;28;20036;-69
2020/12/14 09:29:36;;;;;;;6.68;2.58;;;8.20;99.90;;;;;;5051018;28;20114;-69
2020/12/14 09:32:03;;;;;;;10.20;3.25;;;8.20;99.90;;;;;;5008317;28;20068;-69
2020/12/14 09:34:29;;;;;;;8.82;2.60;;;8.20;99.90;;;;;;5056190;28;20019;-69
2020/12/14 09:36:56;;;;;;;6.03;2.42;;;8.20;99.90;;;;;;5064534;28;20036;-69
2020/12/14 09:39:24;;;;;;;7.05;2.45;;;8.30;99.90;;;;;;5063565;28;20021;-69
2020/12/14 09:41:50;;;;;;;6.38;2.50;;;8.40;99.90;;;;;;5059166;28;20028;-69
2020/12/14 09:44:16;;;;;;;7.40;2.67;;;8.50;99.90;;;;;;5062194;28;20103;-69
2020/12/14 09:46:42;;;;;;;7.72;2.42;;;8.60;99.90;;;;;;5053479;28;20072;-69
2020/12/14 09:49:08;;;;;;;8.55;3.00;;;8.70;99.90;;;;;;5065210;28;20675;-68
2020/12/14 09:51:35;;;;;;;7.63;1.92;;;8.70;99.90;;;;;;5058375;28;20079;-69
2020/12/14 09:54:01;;;;;;;6.28;2.33;;;8.70;99.90;;;;;;5052323;28;20088;-69
2020/12/14 09:56:27;;;;;;;5.93;2.35;;;8.70;99.90;;;;;;5058156;28;20039;-69
2020/12/14 09:58:52;;;;;;;8.88;2.55;;;8.70;99.90;;;;;;5061869;28;20024;-69
2020/12/14 10:01:18;;;;;;;6.20;2.45;;;8.70;99.90;;;;;;5062154;28;20021;-68
2020/12/14 10:03:44;;;;;;;6.75;2.20;;;8.70;99.90;;;;;;5068190;28;20056;-69
2020/12/14 10:06:11;;;;;;;6.53;2.40;;;8.70;99.90;;;;;;5062615;28;20078;-68
2020/12/14 10:08:37;;;;;;;7.07;1.90;;;8.80;99.90;;;;;;5052924;28;20048;-68
2020/12/14 10:11:03;;;;;;;6.78;1.92;;;8.70;99.90;;;;;;5029188;28;20029;-69
2020/12/14 10:13:29;;;;;;;5.72;1.85;;;8.70;99.90;;;;;;5070637;28;20020;-69
2020/12/14 10:15:54;;;;;;;4.93;1.88;;;8.80;99.90;;;;;;5066339;28;20028;-68
2020/12/14 10:18:20;;;;;;;6.63;2.20;;;8.80;99.90;;;;;;5059037;28;20088;-69
2020/12/14 10:20:46;;;;;;;7.07;2.35;;;8.90;99.90;;;;;;5064758;28;20063;-68
2020/12/14 10:23:12;;;;;;;9.95;2.60;;;8.90;99.90;;;;;;5060364;28;20368;-68
2020/12/14 10:25:40;;;;;;;7.60;2.45;;;9.00;99.90;;;;;;5070707;28;20033;-68
2020/12/14 10:28:05;;;;;;;4.65;1.85;;;9.20;99.90;;;;;;5070327;28;20741;-68
2020/12/14 10:30:33;;;;;;;4.47;1.67;;;9.30;99.90;;;;;;5072323;28;20052;-68
2020/12/14 10:32:59;;;;;;;5.65;2.05;;;9.40;99.90;;;;;;5066385;28;20324;-68
2020/12/14 10:35:25;;;;;;;6.07;2.30;;;9.40;99.90;;;;;;5064882;28;20124;-68
2020/12/14 10:37:51;;;;;;;5.70;2.00;;;9.30;99.90;;;;;;5042657;28;20107;-69
2020/12/14 10:40:17;;;;;;;8.52;2.30;;;9.30;99.90;;;;;;5059102;28;20507;-69
2020/12/14 10:42:42;;;;;;;10.57;3.97;;;9.20;99.90;;;;;;5064535;28;20020;-69
2020/12/14 10:45:09;;;;;;;5.93;2.33;;;9.10;99.90;;;;;;5066986;28;20052;-68
2020/12/14 10:47:35;;;;;;;6.40;2.38;;;9.10;99.90;;;;;;5062214;28;20465;-69
2020/12/14 10:50:02;;;;;;;7.05;2.45;;;9.00;99.90;;;;;;5068700;28;20191;-68
2020/12/14 10:52:27;;;;;;;7.15;2.50;;;9.00;99.90;;;;;;5039365;28;20028;-68
2020/12/14 10:54:53;;;;;;;8.50;2.40;;;9.00;99.90;;;;;;5057523;28;20129;-68
2020/12/14 10:57:18;;;;;;;4.70;1.80;;;9.00;99.90;;;;;;5067526;28;20067;-69
2020/12/14 10:59:44;;;;;;;5.30;1.85;;;9.00;99.90;;;;;;5069238;28;20021;-68
2020/12/14 11:02:11;;;;;;;6.07;2.15;;;9.10;99.90;;;;;;5056040;28;20447;-68
2020/12/14 11:04:37;;;;;;;6.75;2.50;;;9.30;99.90;;;;;;5064856;28;20614;-68
2020/12/14 11:07:06;;;;;;;6.70;2.33;;;9.60;99.90;;;;;;5055040;28;20116;-69
2020/12/14 11:09:31;;;;;;;8.02;2.60;;;9.70;99.90;;;;;;5068529;28;20066;-69
2020/12/14 11:11:57;;;;;;;9.82;2.40;;;9.80;99.90;;;;;;5064958;28;20036;-69
2020/12/14 11:14:22;;;;;;;7.45;2.22;;;9.90;99.90;;;;;;5055406;28;20024;-69
2020/12/14 11:16:48;;;;;;;7.93;2.03;;;9.90;99.90;;;;;;5068249;28;20076;-68
2020/12/14 11:19:14;;;;;;;5.88;1.92;;;9.90;99.90;;;;;;5069465;28;20024;-68
2020/12/14 11:21:39;;;;;;;6.05;2.00;;;9.90;99.90;;;;;;5069252;28;20031;-68
2020/12/14 11:24:06;;;;;;;7.97;2.20;;;9.80;99.90;;;;;;5068810;28;20024;-68
2020/12/14 11:26:31;;;;;;;5.80;2.22;;;9.80;99.90;;;;;;5069512;28;20368;-68
2020/12/14 11:28:57;;;;;;;5.47;2.10;;;9.80;99.90;;;;;;5068292;28;20033;-67
2020/12/14 11:31:22;;;;;;;5.97;2.17;;;9.90;99.90;;;;;;5069722;28;20037;-68
2020/12/14 11:33:48;;;;;;;6.57;2.17;;;10.00;99.90;;;;;;5068311;28;20429;-68
2020/12/14 11:36:14;;;;;;;6.25;2.40;;;9.90;99.90;;;;;;5068419;28;20029;-68
2020/12/14 11:38:41;;;;;;;5.43;2.20;;;9.90;99.90;;;;;;5069217;28;20071;-68
2020/12/14 11:41:09;;;;;;;9.05;2.58;;;9.90;99.90;;;;;;5068890;28;20017;-68
2020/12/14 11:43:35;;;;;;;7.38;2.58;;;10.00;99.90;;;;;;5070683;28;20024;-68
2020/12/14 11:46:00;;;;;;;7.15;2.50;;;10.20;99.90;;;;;;5073630;28;20039;-68
2020/12/14 11:48:26;;;;;;;7.10;2.17;;;10.30;99.90;;;;;;5069068;28;20565;-68
2020/12/14 11:50:52;;;;;;;5.85;2.15;;;10.40;99.90;;;;;;5067824;28;20028;-68
2020/12/14 11:53:17;;;;;;;9.70;2.85;;;10.40;99.90;;;;;;5068919;28;20102;-68
2020/12/14 11:55:45;;;;;;;7.90;2.58;;;10.30;99.90;;;;;;5067581;28;20707;-68
2020/12/14 11:58:10;;;;;;;7.50;2.50;;;10.60;99.90;;;;;;5068732;28;20639;-68
2020/12/14 12:00:36;;;;;;;6.15;1.92;;;10.80;99.90;;;;;;5065205;28;20116;-68
2020/12/14 12:03:02;;;;;;;8.88;2.55;;;11.20;99.90;;;;;;5057889;28;20060;-68
2020/12/14 12:05:27;;;;;;;4.95;1.73;;;11.30;99.90;;;;;;5068304;28;20490;-68
2020/12/14 12:07:53;;;;;;;5.13;1.83;;;11.50;99.90;;;;;;5067760;28;20558;-68
2020/12/14 12:10:20;;;;;;;8.13;2.92;;;12.30;99.90;;;;;;5068143;28;20032;-70
2020/12/14 12:12:45;;;;;;;6.50;2.28;;;12.40;99.90;;;;;;5067565;28;20024;-69
2020/12/14 12:15:15;;;;;;;7.05;2.40;;;11.90;99.90;;;;;;5068024;28;20529;-68
2020/12/14 12:17:41;;;;;;;6.88;2.20;;;11.50;99.90;;;;;;5068442;28;20027;-68
2020/12/14 12:20:07;;;;;;;7.13;2.58;;;11.30;99.90;;;;;;5067199;28;20435;-68
2020/12/14 12:22:33;;;;;;;9.70;2.72;;;11.20;99.90;;;;;;5068208;28;20029;-68
2020/12/14 12:24:58;;;;;;;6.57;1.92;;;11.20;99.90;;;;;;5067786;28;20040;-68
2020/12/14 12:27:24;;;;;;;7.30;2.50;;;11.10;99.90;;;;;;5068164;28;20517;-68
2020/12/14 12:29:49;;;;;;;8.98;2.20;;;11.10;99.90;;;;;;5049637;28;20032;-68
2020/12/14 12:32:15;;;;;;;7.32;2.35;;;11.20;99.90;;;;;;5068796;28;20093;-68
2020/12/14 12:34:40;;;;;;;8.60;2.40;;;11.00;99.90;;;;;;5068679;28;20048;-68
2020/12/14 12:37:06;;;;;;;5.53;1.98;;;11.10;99.90;;;;;;5067848;28;20082;-68
2020/12/14 12:39:32;;;;;;;8.10;1.83;;;11.20;99.90;;;;;;5068418;28;20020;-68
2020/12/14 12:41:58;;;;;;;5.32;1.85;;;11.20;99.90;;;;;;5067958;28;20089;-68
2020/12/14 12:44:24;;;;;;;7.55;2.10;;;11.10;99.90;;;;;;5068652;28;20033;-68
2020/12/14 12:46:50;;;;;;;10.32;2.58;;;11.20;99.90;;;;;;5067485;28;20037;-68
2020/12/14 12:49:16;;;;;;;6.32;1.83;;;11.00;99.90;;;;;;5067377;28;20055;-68
2020/12/14 12:51:49;;;;;;;7.15;2.28;;;11.00;99.90;;;;;;5068134;28;20021;-68
2020/12/14 12:54:15;;;;;;;8.43;2.42;;;11.00;99.90;;;;;;5068116;28;20399;-68
2020/12/14 12:56:41;;;;;;;6.63;2.30;;;11.00;99.90;;;;;;5067724;28;20044;-68